Time;durP1;ratioP1;P1;durP2;ratioP2;P2;SDS_P1;SDS_P2;PMS_P1;PMS_P2;Temp;Humidity;BMP_temperature;BMP_pressure;BME280_temperature;BME280_humidity;BME280_pressure;Samples;Min_cycle;Max_cycle;Signal;HPM_P1;HPM_P2
2021/09/06 00:00:55;;;;;;;11.98;7.90;;;17.00;99.90;;;;;;6686507;88;20202;-78
2021/09/06 00:11:08;;;;;;;11.65;7.82;;;16.80;99.90;;;;;;6686102;88;20684;-78
2021/09/06 00:21:09;;;;;;;13.73;8.23;;;16.80;99.90;;;;;;6683965;89;20191;-78
2021/09/06 00:31:12;;;;;;;12.00;8.18;;;16.70;99.90;;;;;;6686244;89;20224;-78
2021/09/06 00:41:13;;;;;;;13.35;7.93;;;16.70;99.90;;;;;;6683230;77;20355;-75
2021/09/06 00:51:13;;;;;;;14.52;8.68;;;16.40;99.90;;;;;;6712910;88;20685;-74
2021/09/06 01:01:14;;;;;;;13.43;7.90;;;16.20;99.90;;;;;;6715747;88;20561;-77
2021/09/06 01:11:15;;;;;;;14.57;8.02;;;16.10;99.90;;;;;;6715947;88;20709;-76
2021/09/06 01:21:15;;;;;;;14.10;7.80;;;16.10;99.90;;;;;;6715904;88;20260;-75
2021/09/06 01:31:16;;;;;;;14.65;8.15;;;16.20;99.90;;;;;;6714603;88;21119;-76
2021/09/06 01:41:16;;;;;;;12.95;8.20;;;15.90;99.90;;;;;;6714648;88;20640;-76
2021/09/06 01:51:17;;;;;;;13.68;8.30;;;16.00;99.90;;;;;;6714315;88;20316;-77
2021/09/06 02:01:18;;;;;;;14.10;7.95;;;15.70;99.90;;;;;;6714444;88;20252;-75
2021/09/06 02:11:18;;;;;;;17.08;8.80;;;15.70;99.90;;;;;;6715060;88;21082;-74
2021/09/06 02:21:19;;;;;;;13.30;8.18;;;15.60;99.90;;;;;;6717379;88;20185;-75
2021/09/06 02:31:20;;;;;;;12.23;7.80;;;15.60;99.90;;;;;;6715110;88;20308;-76
2021/09/06 02:41:20;;;;;;;13.40;8.02;;;15.60;99.90;;;;;;6715486;88;20669;-76
2021/09/06 02:51:21;;;;;;;15.93;8.98;;;15.40;99.90;;;;;;6714647;88;20884;-75
2021/09/06 03:01:21;;;;;;;14.95;8.18;;;15.30;99.90;;;;;;6714215;88;20210;-75
2021/09/06 03:11:23;;;;;;;11.65;8.43;;;15.20;99.90;;;;;;6713786;88;20246;-76
2021/09/06 03:21:24;;;;;;;13.23;8.48;;;15.10;99.90;;;;;;6713251;88;20250;-75
2021/09/06 03:31:24;;;;;;;15.85;8.88;;;15.10;99.90;;;;;;6713447;88;20690;-75
2021/09/06 03:41:25;;;;;;;15.18;8.52;;;15.30;99.90;;;;;;6714071;88;20221;-75
2021/09/06 03:51:25;;;;;;;14.90;8.68;;;15.10;99.90;;;;;;6713203;88;20255;-75
2021/09/06 04:01:26;;;;;;;14.93;9.00;;;15.10;99.90;;;;;;6712857;88;20333;-76
2021/09/06 04:11:26;;;;;;;14.27;8.75;;;14.90;99.90;;;;;;6713082;88;20627;-76
2021/09/06 04:21:27;;;;;;;16.33;8.88;;;14.80;99.90;;;;;;6713498;88;20185;-76
2021/09/06 04:31:28;;;;;;;14.80;8.43;;;14.80;99.90;;;;;;6715521;88;20354;-75
2021/09/06 04:41:29;;;;;;;12.32;8.32;;;14.80;99.90;;;;;;6715938;88;20201;-76
2021/09/06 04:51:29;;;;;;;14.77;8.75;;;14.90;99.90;;;;;;6716445;88;20259;-76
2021/09/06 05:01:30;;;;;;;14.93;8.88;;;14.80;99.90;;;;;;6716997;88;20200;-75
2021/09/06 05:11:32;;;;;;;14.57;8.53;;;14.70;99.90;;;;;;6715864;88;20204;-74
2021/09/06 05:21:32;;;;;;;15.07;9.32;;;14.60;99.90;;;;;;6715946;88;20229;-76
2021/09/06 05:31:33;;;;;;;13.30;8.63;;;14.70;99.90;;;;;;6716107;88;20757;-76
2021/09/06 05:41:34;;;;;;;13.55;8.45;;;14.60;99.90;;;;;;6716480;88;20229;-74
2021/09/06 05:51:35;;;;;;;13.27;8.65;;;14.60;99.90;;;;;;6715890;88;20205;-75
2021/09/06 06:01:35;;;;;;;13.77;8.70;;;14.70;99.90;;;;;;6715704;88;20204;-75
2021/09/06 06:11:40;;;;;;;14.32;8.90;;;14.90;99.90;;;;;;6714819;88;20196;-76
2021/09/06 06:21:41;;;;;;;13.30;8.40;;;15.30;99.90;;;;;;6715958;88;20211;-78
2021/09/06 06:31:41;;;;;;;15.77;9.40;;;15.80;99.90;;;;;;6716484;88;20649;-77
2021/09/06 06:41:42;;;;;;;17.65;8.88;;;16.40;99.90;;;;;;6720493;77;20694;-74
2021/09/06 06:51:42;;;;;;;14.43;8.02;;;16.90;99.90;;;;;;6704473;88;20194;-78
2021/09/06 07:01:43;;;;;;;16.53;8.33;;;17.40;99.90;;;;;;6719729;88;20875;-79
2021/09/06 07:11:43;;;;;;;15.60;8.80;;;17.90;99.90;;;;;;6728266;88;20946;-78
2021/09/06 07:21:44;;;;;;;16.70;8.60;;;18.60;99.90;;;;;;6728498;88;20285;-78
2021/09/06 07:31:44;;;;;;;14.68;8.88;;;19.50;99.90;;;;;;6724576;88;20224;-78
2021/09/06 07:41:45;;;;;;;13.05;8.60;;;20.00;99.90;;;;;;6723935;88;20197;-78
2021/09/06 07:51:52;;;;;;;15.25;8.45;;;20.70;99.90;;;;;;6723593;88;20165;-78
2021/09/06 08:01:53;;;;;;;14.55;9.15;;;21.60;99.90;;;;;;6724231;88;20649;-78
2021/09/06 08:11:55;;;;;;;15.27;8.60;;;22.40;99.90;;;;;;6728555;88;20192;-78
2021/09/06 08:21:56;;;;;;;15.43;8.57;;;23.20;99.90;;;;;;6728094;88;20326;-78
2021/09/06 08:31:57;;;;;;;15.68;9.95;;;23.90;99.90;;;;;;6727905;88;20786;-78
2021/09/06 08:42:00;;;;;;;14.60;9.27;;;24.50;99.90;;;;;;6728263;88;20189;-78
2021/09/06 08:52:01;;;;;;;;;;;24.70;99.90;;;;;;6727959;88;20167;-78
2021/09/06 09:02:01;;;;;;;14.05;8.80;;;25.60;99.90;;;;;;6729514;88;20173;-78
2021/09/06 09:12:03;;;;;;;15.67;10.37;;;26.20;99.90;;;;;;6728097;88;20209;-78
2021/09/06 09:22:06;;;;;;;14.47;9.93;;;27.10;99.90;;;;;;6725864;88;20215;-79
2021/09/06 09:32:10;;;;;;;17.37;9.95;;;27.80;99.90;;;;;;6729291;88;20177;-79
2021/09/06 09:42:11;;;;;;;17.15;10.07;;;28.50;99.90;;;;;;6719158;88;20239;-77
2021/09/06 09:52:12;;;;;;;15.00;9.23;;;29.20;98.70;;;;;;6717385;88;20201;-77
2021/09/06 10:02:19;;;;;;;14.00;8.75;;;29.90;97.50;;;;;;6717857;88;20211;-76
2021/09/06 10:12:24;;;;;;;13.32;8.70;;;30.10;94.00;;;;;;6726302;88;20216;-76
2021/09/06 10:22:27;;;;;;;14.77;9.50;;;30.50;94.80;;;;;;6718660;88;20316;-77
2021/09/06 10:32:46;;;;;;;15.60;9.73;;;32.10;92.90;;;;;;6729829;88;20245;-79
2021/09/06 10:42:47;;;;;;;15.70;10.35;;;33.30;90.60;;;;;;6721074;88;20198;-76
2021/09/06 10:52:50;;;;;;;16.67;11.80;;;32.70;90.50;;;;;;6722024;88;20193;-77
2021/09/06 11:02:52;;;;;;;16.52;10.57;;;32.50;87.40;;;;;;6717204;88;20190;-78
2021/09/06 11:12:54;;;;;;;11.75;8.50;;;33.30;87.00;;;;;;6723320;88;20191;-78
2021/09/06 11:23:03;;;;;;;13.07;7.85;;;33.90;83.50;;;;;;6726611;88;20612;-78
2021/09/06 11:33:06;;;;;;;12.55;8.27;;;33.80;81.80;;;;;;6725681;88;20323;-78
2021/09/06 11:43:08;;;;;;;14.05;8.30;;;33.90;81.40;;;;;;6726876;88;20272;-77
2021/09/06 11:53:12;;;;;;;16.37;7.82;;;34.00;79.30;;;;;;6725915;88;20221;-78
2021/09/06 12:03:23;;;;;;;9.63;7.12;;;33.80;77.50;;;;;;6725453;88;20189;-78
2021/09/06 12:13:24;;;;;;;13.10;7.70;;;34.00;77.20;;;;;;6724051;88;20214;-78
2021/09/06 12:23:30;;;;;;;9.60;6.53;;;33.70;77.10;;;;;;6721227;88;20722;-77
2021/09/06 12:33:32;;;;;;;11.23;6.90;;;34.50;76.00;;;;;;6726656;88;20797;-77
2021/09/06 12:43:32;;;;;;;9.32;7.07;;;34.00;75.20;;;;;;6718489;77;20290;-76
2021/09/06 12:53:33;;;;;;;12.15;8.13;;;33.30;75.00;;;;;;6697958;88;20199;-74
2021/09/06 13:03:33;;;;;;;10.98;7.43;;;32.00;78.10;;;;;;6700890;88;20776;-74
2021/09/06 13:13:34;;;;;;;13.27;8.40;;;32.20;78.70;;;;;;6696956;88;20599;-76
2021/09/06 13:23:34;;;;;;;18.35;7.75;;;32.20;77.30;;;;;;6699242;88;20227;-76
2021/09/06 13:33:37;;;;;;;12.30;7.93;;;32.70;77.10;;;;;;6701612;88;20235;-73
2021/09/06 13:43:37;;;;;;;14.87;8.38;;;32.90;76.20;;;;;;6696850;88;20227;-75
2021/09/06 13:53:40;;;;;;;14.00;9.43;;;32.40;76.50;;;;;;6694404;88;20199;-78
2021/09/06 14:03:40;;;;;;;16.42;8.65;;;32.70;77.20;;;;;;6696119;88;20220;-75
2021/09/06 14:13:41;;;;;;;15.03;8.67;;;33.00;77.00;;;;;;6697647;88;20242;-76
2021/09/06 14:23:42;;;;;;;;;;;33.00;76.60;;;;;;6697232;88;20501;-75
2021/09/06 14:33:44;;;;;;;15.82;9.40;;;32.90;76.60;;;;;;6694478;88;20122;-77
2021/09/06 14:43:45;;;;;;;14.77;9.32;;;32.40;76.90;;;;;;6696566;88;20202;-76
2021/09/06 14:53:45;;;;;;;12.43;9.07;;;32.00;77.60;;;;;;6695739;88;20240;-74
2021/09/06 15:03:46;;;;;;;14.63;8.40;;;31.60;77.10;;;;;;6696241;88;20206;-75
2021/09/06 15:13:46;;;;;;;11.52;8.30;;;31.50;79.00;;;;;;6698256;88;20217;-76
2021/09/06 15:23:47;;;;;;;13.90;9.18;;;31.20;76.90;;;;;;6694627;88;20232;-77
2021/09/06 15:33:47;;;;;;;14.45;8.25;;;30.30;77.00;;;;;;6696871;88;20241;-76
2021/09/06 15:43:49;;;;;;;15.38;8.27;;;29.30;79.70;;;;;;6691845;88;20741;-76
2021/09/06 15:53:50;;;;;;;13.15;7.95;;;28.90;81.10;;;;;;6695916;88;20857;-76
2021/09/06 16:03:51;;;;;;;14.57;7.55;;;28.20;81.50;;;;;;6698551;88;20252;-74
2021/09/06 16:13:52;;;;;;;12.73;6.62;;;27.80;80.70;;;;;;6699718;88;20190;-75
2021/09/06 16:23:53;;;;;;;12.18;7.37;;;27.70;79.60;;;;;;6696481;88;20203;-76
2021/09/06 16:33:53;;;;;;;11.50;7.32;;;27.60;79.50;;;;;;6692995;88;20191;-74
2021/09/06 16:43:54;;;;;;;13.13;8.00;;;27.30;80.00;;;;;;6684058;88;20652;-75
2021/09/06 16:53:54;;;;;;;12.98;7.53;;;26.90;77.80;;;;;;6679361;88;20182;-74
2021/09/06 17:03:54;;;;;;;15.82;9.30;;;26.50;78.30;;;;;;6683945;88;20196;-77
2021/09/06 17:13:55;;;;;;;15.73;8.13;;;26.10;78.60;;;;;;6691227;88;20235;-75
2021/09/06 17:23:56;;;;;;;14.55;8.23;;;25.50;79.70;;;;;;6691558;88;20366;-75
2021/09/06 17:33:56;;;;;;;14.27;8.15;;;24.70;86.20;;;;;;6693861;88;20208;-77
2021/09/06 17:43:57;;;;;;;16.73;8.80;;;24.40;88.30;;;;;;6685064;88;20215;-76
2021/09/06 17:53:57;;;;;;;15.13;8.80;;;24.00;89.30;;;;;;6696733;88;20194;-75
2021/09/06 18:03:58;;;;;;;14.80;8.25;;;23.80;89.70;;;;;;6691994;88;20191;-76
2021/09/06 18:13:58;;;;;;;16.45;9.13;;;23.40;90.40;;;;;;6695822;88;20204;-78
2021/09/06 18:23:59;;;;;;;18.33;10.02;;;23.00;90.60;;;;;;6691581;88;20212;-77
2021/09/06 18:34:00;;;;;;;16.95;9.93;;;22.70;91.40;;;;;;6680595;88;20174;-78
2021/09/06 18:44:00;;;;;;;17.05;9.23;;;22.30;92.20;;;;;;6693138;77;20266;-78
2021/09/06 18:54:01;;;;;;;17.02;9.07;;;21.90;93.00;;;;;;6703000;88;20381;-77
2021/09/06 19:04:01;;;;;;;16.98;9.68;;;21.70;94.00;;;;;;6694954;88;20742;-80
2021/09/06 19:14:02;;;;;;;17.42;9.70;;;21.30;95.30;;;;;;6720531;88;20648;-82
2021/09/06 19:24:03;;;;;;;16.33;9.90;;;21.20;97.00;;;;;;6723360;88;20374;-81
2021/09/06 19:34:04;;;;;;;20.20;9.70;;;20.90;99.10;;;;;;6715893;88;20205;-80
2021/09/06 19:44:05;;;;;;;15.70;9.45;;;20.70;99.90;;;;;;6712474;88;20642;-80
2021/09/06 19:54:06;;;;;;;15.52;8.98;;;20.60;99.90;;;;;;6717931;88;20201;-81
2021/09/06 20:04:07;;;;;;;18.23;10.73;;;20.30;99.90;;;;;;6713243;88;20246;-81
2021/09/06 20:14:07;;;;;;;19.62;11.35;;;20.30;99.90;;;;;;6715878;88;20202;-81
2021/09/06 20:24:08;;;;;;;16.40;9.48;;;20.00;99.90;;;;;;6719043;88;20254;-81
2021/09/06 20:34:09;;;;;;;19.60;10.55;;;19.70;99.90;;;;;;6718701;88;20202;-81
2021/09/06 20:44:09;;;;;;;21.55;9.68;;;19.60;99.90;;;;;;6718516;88;20209;-81
2021/09/06 20:54:10;;;;;;;18.20;10.45;;;19.20;99.90;;;;;;6720737;88;20270;-82
2021/09/06 21:04:11;;;;;;;18.35;9.95;;;19.00;99.90;;;;;;6728275;88;20706;-81
2021/09/06 21:14:12;;;;;;;18.20;10.10;;;18.70;99.90;;;;;;6730642;88;20312;-81
2021/09/06 21:24:12;;;;;;;18.20;10.23;;;18.30;99.90;;;;;;6728062;88;20718;-82
2021/09/06 21:34:13;;;;;;;18.45;10.52;;;18.20;99.90;;;;;;6727449;88;20291;-81
2021/09/06 21:44:13;;;;;;;17.10;10.37;;;17.80;99.90;;;;;;6728271;88;20182;-80
2021/09/06 21:54:14;;;;;;;20.77;11.40;;;17.90;99.90;;;;;;6725150;88;21162;-82
2021/09/06 22:04:15;;;;;;;21.27;10.73;;;17.60;99.90;;;;;;6723317;88;20224;-81
2021/09/06 22:14:16;;;;;;;16.98;9.93;;;17.20;99.90;;;;;;6729454;88;20174;-84
2021/09/06 22:24:16;;;;;;;20.77;11.57;;;17.10;99.90;;;;;;6727606;88;20308;-81
2021/09/06 22:34:17;;;;;;;17.23;10.25;;;17.10;99.90;;;;;;6731342;88;20522;-81
2021/09/06 22:44:17;;;;;;;18.73;10.38;;;16.90;99.90;;;;;;6713588;88;20280;-80
2021/09/06 22:54:18;;;;;;;18.15;9.80;;;16.70;99.90;;;;;;6710167;88;20197;-80
2021/09/06 23:04:18;;;;;;;20.67;10.98;;;16.70;99.90;;;;;;6711415;88;20193;-81
2021/09/06 23:14:19;;;;;;;20.60;10.63;;;16.60;99.90;;;;;;6716146;88;20224;-80
2021/09/06 23:24:19;;;;;;;20.70;11.15;;;16.40;99.90;;;;;;6715266;88;20657;-80
2021/09/06 23:34:20;;;;;;;23.45;11.63;;;16.10;99.90;;;;;;6715392;88;20205;-81
2021/09/06 23:44:21;;;;;;;20.05;10.68;;;16.00;99.90;;;;;;6714690;88;20288;-80
2021/09/06 23:54:21;;;;;;;18.73;10.38;;;15.90;99.90;;;;;;6728746;88;20844;-83
